createdAt,value
2019-02-15T00:00:34.382Z,7.20
2019-02-15T00:03:03.977Z,7.20
2019-02-15T00:05:32.247Z,7.20
2019-02-15T00:08:00.559Z,7.20
2019-02-15T00:10:29.205Z,7.30
2019-02-15T00:12:57.458Z,7.20
2019-02-15T00:15:25.770Z,7.10
2019-02-15T00:17:55.908Z,7.10
2019-02-15T00:20:25.821Z,7.10
2019-02-15T00:22:55.680Z,7.00
2019-02-15T00:25:24.195Z,7.10
2019-02-15T00:27:52.435Z,7.10
2019-02-15T00:30:20.690Z,7.10
2019-02-15T00:32:49.093Z,7.10
2019-02-15T00:35:17.490Z,7.10
2019-02-15T00:37:45.725Z,7.10
2019-02-15T00:40:14.045Z,7.00
2019-02-15T00:42:42.275Z,6.90
2019-02-15T00:45:12.140Z,6.90
2019-02-15T00:47:54.381Z,6.90
2019-02-15T00:50:41.762Z,6.90
2019-02-15T00:53:20.981Z,6.80
2019-02-15T00:55:53.619Z,6.80
2019-02-15T00:58:23.814Z,6.80
2019-02-15T01:00:53.692Z,6.70
2019-02-15T01:03:27.002Z,6.80
2019-02-15T01:06:15.219Z,6.70
2019-02-15T01:08:57.234Z,6.80
2019-02-15T01:11:27.109Z,6.80
2019-02-15T01:13:55.337Z,6.90
2019-02-15T01:16:24.162Z,7.00
2019-02-15T01:18:52.419Z,7.00
2019-02-15T01:21:20.905Z,7.00
2019-02-15T01:23:56.614Z,7.10
2019-02-15T01:26:26.575Z,7.10
2019-02-15T01:28:56.504Z,7.20
2019-02-15T01:31:26.617Z,7.20
2019-02-15T01:37:13.263Z,7.10
2019-02-15T01:39:46.010Z,7.10
2019-02-15T01:42:26.534Z,7.10
2019-02-15T01:45:02.164Z,7.00
2019-02-15T01:47:36.815Z,6.90
2019-02-15T01:50:09.421Z,6.90
2019-02-15T01:52:37.715Z,6.90
2019-02-15T01:55:06.926Z,6.80
2019-02-15T01:57:35.161Z,6.80
2019-02-15T02:00:04.669Z,6.80
2019-02-15T02:02:33.982Z,6.80
2019-02-15T02:05:02.210Z,6.70
2019-02-15T02:07:30.445Z,6.60
2019-02-15T02:09:59.476Z,6.60
2019-02-15T02:12:27.706Z,6.70
2019-02-15T02:14:55.939Z,6.60
2019-02-15T02:17:24.347Z,6.60
2019-02-15T02:19:52.583Z,6.50
2019-02-15T02:22:42.962Z,6.50
2019-02-15T02:25:11.367Z,6.40
2019-02-15T02:27:40.296Z,6.40
2019-02-15T02:30:11.413Z,6.40
2019-02-15T02:32:39.664Z,6.40
2019-02-15T02:35:09.088Z,6.40
2019-02-15T02:37:38.637Z,6.50
2019-02-15T02:40:08.419Z,6.40
2019-02-15T02:42:36.920Z,6.50
2019-02-15T02:45:07.452Z,6.50
2019-02-15T02:47:35.705Z,6.60
2019-02-15T02:50:05.595Z,6.70
2019-02-15T02:52:34.090Z,6.70
2019-02-15T02:55:02.347Z,6.70
2019-02-15T02:57:30.583Z,6.60
2019-02-15T02:59:58.979Z,6.60
2019-02-15T03:02:27.211Z,6.50
2019-02-15T03:04:58.214Z,6.50
2019-02-15T03:07:26.723Z,6.40
2019-02-15T03:09:54.956Z,6.30
2019-02-15T03:12:23.174Z,6.40
2019-02-15T03:14:51.728Z,6.40
2019-02-15T03:17:19.986Z,6.40
2019-02-15T03:19:48.256Z,6.40
2019-02-15T03:22:16.598Z,6.30
2019-02-15T03:24:44.843Z,6.20
2019-02-15T03:27:13.087Z,6.20
2019-02-15T03:29:41.593Z,6.10
2019-02-15T03:32:09.844Z,6.10
2019-02-15T03:34:38.113Z,6.00
2019-02-15T03:37:24.648Z,6.00
2019-02-15T03:39:54.543Z,5.90
2019-02-15T03:42:23.329Z,5.80
2019-02-15T03:44:51.742Z,5.70
2019-02-15T03:47:21.638Z,5.60
2019-02-15T03:49:49.885Z,5.60
2019-02-15T03:52:18.287Z,5.60
2019-02-15T03:54:46.519Z,5.60
2019-02-15T03:57:14.779Z,5.60
2019-02-15T03:59:44.896Z,5.50
2019-02-15T04:02:13.159Z,5.50
2019-02-15T04:04:41.460Z,5.50
2019-02-15T04:07:09.915Z,5.60
2019-02-15T04:09:38.162Z,5.60
2019-02-15T04:12:06.401Z,5.50
2019-02-15T04:14:34.789Z,5.60
2019-02-15T04:17:03.129Z,5.60
2019-02-15T04:19:31.353Z,5.70
2019-02-15T04:21:59.759Z,5.70
2019-02-15T04:24:28.020Z,5.70
2019-02-15T04:26:56.326Z,5.70
2019-02-15T04:29:27.483Z,5.70
2019-02-15T04:31:55.737Z,5.70
2019-02-15T04:34:25.276Z,5.70
2019-02-15T04:36:53.528Z,5.80
2019-02-15T04:39:23.514Z,5.80
2019-02-15T04:41:51.807Z,5.80
2019-02-15T04:44:20.046Z,5.80
2019-02-15T04:46:50.008Z,5.80
2019-02-15T04:49:18.321Z,5.70
2019-02-15T04:51:46.566Z,5.70
2019-02-15T04:54:14.970Z,5.70
2019-02-15T04:56:43.206Z,5.60
2019-02-15T04:59:11.427Z,5.80
2019-02-15T05:01:50.110Z,5.80
2019-02-15T05:04:18.331Z,6.00
2019-02-15T05:06:46.822Z,5.90
2019-02-15T05:09:16.338Z,5.90
2019-02-15T05:11:44.614Z,5.80
2019-02-15T05:14:12.841Z,5.80
2019-02-15T05:16:41.435Z,5.80
2019-02-15T05:19:09.658Z,5.70
2019-02-15T05:21:37.895Z,5.70
2019-02-15T05:24:06.380Z,5.70
2019-02-15T05:26:34.621Z,5.70
2019-02-15T05:29:02.848Z,5.70
2019-02-15T05:31:31.511Z,5.70
2019-02-15T05:34:00.186Z,5.70
2019-02-15T05:36:28.524Z,5.70
2019-02-15T05:39:15.829Z,5.70
2019-02-15T05:41:50.931Z,5.60
2019-02-15T05:44:20.268Z,5.60
2019-02-15T05:46:49.650Z,5.60
2019-02-15T05:49:21.126Z,5.60
2019-02-15T05:51:50.010Z,5.60
2019-02-15T05:54:19.006Z,5.60
2019-02-15T05:56:47.775Z,5.60
2019-02-15T05:59:16.050Z,5.60
2019-02-15T06:01:44.305Z,5.60
2019-02-15T06:04:13.021Z,5.70
2019-02-15T06:06:41.239Z,5.70
2019-02-15T06:09:12.368Z,5.50
2019-02-15T06:11:41.338Z,5.40
2019-02-15T06:14:09.822Z,5.50
2019-02-15T06:16:38.125Z,5.50
2019-02-15T06:19:08.687Z,5.50
2019-02-15T06:21:36.948Z,5.50
2019-02-15T06:24:05.242Z,5.50
2019-02-15T06:26:33.965Z,5.60
2019-02-15T06:29:02.253Z,5.70
2019-02-15T06:31:30.562Z,5.70
2019-02-15T06:33:59.821Z,5.80
2019-02-15T06:36:31.062Z,5.80
2019-02-15T06:38:59.335Z,5.90
2019-02-15T06:41:28.274Z,5.90
2019-02-15T06:43:59.188Z,6.00
2019-02-15T06:46:28.237Z,5.90
2019-02-15T06:48:56.493Z,5.90
2019-02-15T06:51:26.554Z,5.80
2019-02-15T06:53:54.786Z,5.80
2019-02-15T06:56:23.053Z,5.80
2019-02-15T06:58:53.948Z,5.80
2019-02-15T07:01:26.885Z,5.80
2019-02-15T07:04:02.809Z,5.70
2019-02-15T07:06:33.362Z,5.60
2019-02-15T07:09:04.593Z,5.70
2019-02-15T07:11:35.223Z,5.70
2019-02-15T07:14:03.726Z,5.60
2019-02-15T07:16:31.982Z,5.70
2019-02-15T07:19:00.442Z,5.60
2019-02-15T07:21:29.355Z,5.60
2019-02-15T07:23:57.614Z,5.70
2019-02-15T07:26:27.220Z,5.80
2019-02-15T07:28:58.303Z,6.10
2019-02-15T07:31:26.570Z,6.50
2019-02-15T07:33:54.838Z,6.70
2019-02-15T07:36:24.122Z,6.70
2019-02-15T07:38:52.422Z,6.70
2019-02-15T07:41:20.663Z,6.90
2019-02-15T07:43:49.372Z,7.00
2019-02-15T07:46:17.622Z,7.10
2019-02-15T07:48:46.709Z,7.10
2019-02-15T07:51:15.131Z,7.30
2019-02-15T07:53:43.387Z,7.60
2019-02-15T07:56:11.670Z,7.80
2019-02-15T07:58:40.039Z,7.90
2019-02-15T08:01:08.277Z,8.10
2019-02-15T08:03:36.539Z,8.40
2019-02-15T08:06:04.923Z,8.30
2019-02-15T08:08:33.160Z,8.40
2019-02-15T08:11:01.423Z,8.50
2019-02-15T08:13:30.431Z,8.70
2019-02-15T08:15:58.669Z,8.60
2019-02-15T08:18:26.960Z,9.40
2019-02-15T08:20:55.568Z,9.80
2019-02-15T08:23:23.800Z,9.80
2019-02-15T08:25:52.047Z,10.00
2019-02-15T08:28:20.607Z,10.20
2019-02-15T08:30:49.390Z,10.50
2019-02-15T08:33:17.623Z,10.90
2019-02-15T08:35:46.039Z,9.80
2019-02-15T08:38:14.334Z,9.90
2019-02-15T08:40:44.280Z,10.10
2019-02-15T08:43:12.923Z,10.30
2019-02-15T08:45:41.582Z,9.90
2019-02-15T08:48:10.360Z,9.90
2019-02-15T08:50:38.746Z,10.00
2019-02-15T08:53:07.004Z,9.80
2019-02-15T08:55:35.360Z,10.10
2019-02-15T08:58:04.039Z,10.20
2019-02-15T09:00:32.265Z,10.30
2019-02-15T09:03:03.647Z,10.50
2019-02-15T09:05:32.546Z,10.60
2019-02-15T09:08:00.871Z,10.50
2019-02-15T09:10:29.403Z,10.80
2019-02-15T09:12:59.530Z,11.40
2019-02-15T09:15:27.769Z,11.40
2019-02-15T09:17:56.007Z,11.20
2019-02-15T09:20:24.357Z,11.20
2019-02-15T09:22:52.583Z,11.00
2019-02-15T09:25:21.759Z,11.10
2019-02-15T09:27:51.797Z,11.20
2019-02-15T09:30:20.046Z,11.20
2019-02-15T09:32:48.847Z,11.20
2019-02-15T09:35:18.348Z,11.50
2019-02-15T09:37:46.610Z,11.70
2019-02-15T09:40:14.842Z,12.00
2019-02-15T09:42:46.195Z,12.40
2019-02-15T09:45:14.480Z,12.80
2019-02-15T09:47:42.759Z,13.00
2019-02-15T09:50:12.412Z,13.00
2019-02-15T09:52:41.005Z,13.00
2019-02-15T09:55:09.235Z,13.20
2019-02-15T09:57:38.141Z,13.00
2019-02-15T10:00:10.453Z,13.00
2019-02-15T10:02:38.986Z,13.10
2019-02-15T10:05:08.720Z,13.30
2019-02-15T10:07:37.030Z,13.60
2019-02-15T10:10:09.821Z,13.90
2019-02-15T10:12:38.061Z,13.90
2019-02-15T10:15:09.038Z,13.80
2019-02-15T10:17:42.910Z,13.70
2019-02-15T10:20:11.380Z,13.80
2019-02-15T10:22:40.710Z,14.20
2019-02-15T10:25:10.196Z,14.30
2019-02-15T10:27:38.437Z,14.00
2019-02-15T10:30:09.980Z,13.90
2019-02-15T10:32:38.707Z,13.70
2019-02-15T10:35:09.577Z,13.80
2019-02-15T10:37:38.614Z,14.10
2019-02-15T10:40:11.654Z,14.60
2019-02-15T10:42:40.658Z,14.50
2019-02-15T10:45:19.242Z,14.60
2019-02-15T10:47:47.538Z,15.20
2019-02-15T10:50:15.786Z,15.80
2019-02-15T10:52:44.773Z,15.70
2019-02-15T10:55:13.044Z,15.40
2019-02-15T10:57:41.354Z,15.80
2019-02-15T11:00:18.750Z,15.70
2019-02-15T11:02:48.098Z,15.60
2019-02-15T11:05:17.310Z,15.80
2019-02-15T11:07:45.904Z,16.80
2019-02-15T11:10:14.159Z,17.00
2019-02-15T11:12:42.390Z,16.30
2019-02-15T11:15:16.185Z,16.10
2019-02-15T11:17:44.489Z,16.00
2019-02-15T11:20:20.806Z,16.10
2019-02-15T11:22:49.307Z,17.00
2019-02-15T11:25:17.564Z,16.50
2019-02-15T11:27:45.999Z,16.90
2019-02-15T11:30:15.418Z,16.80
2019-02-15T11:32:43.662Z,17.20
2019-02-15T11:35:19.810Z,17.30
2019-02-15T11:37:48.270Z,17.60
2019-02-15T11:40:16.526Z,17.00
2019-02-15T11:42:44.794Z,17.20
2019-02-15T11:45:15.995Z,17.80
2019-02-15T11:47:44.265Z,18.40
2019-02-15T11:50:13.462Z,17.50
2019-02-15T11:52:41.900Z,17.50
2019-02-15T11:55:10.822Z,16.90
2019-02-15T11:57:39.117Z,17.50
2019-02-15T12:00:15.020Z,17.80
2019-02-15T12:02:43.288Z,18.00
2019-02-15T12:05:11.504Z,18.60
2019-02-15T12:07:39.917Z,18.70
2019-02-15T12:10:10.191Z,18.80
2019-02-15T12:12:38.458Z,17.50
2019-02-15T12:15:08.377Z,18.60
2019-02-15T12:17:41.939Z,18.90
2019-02-15T12:20:17.462Z,18.90
2019-02-15T12:22:46.047Z,18.30
2019-02-15T12:25:14.541Z,18.30
2019-02-15T12:27:42.778Z,18.20
2019-02-15T12:30:15.653Z,17.80
2019-02-15T12:32:43.893Z,18.00
2019-02-15T12:35:12.132Z,18.00
2019-02-15T12:37:40.734Z,18.90
2019-02-15T12:40:10.721Z,19.20
2019-02-15T12:42:39.016Z,18.70
2019-02-15T12:45:10.518Z,18.50
2019-02-15T12:47:39.046Z,18.00
2019-02-15T12:50:10.596Z,17.80
2019-02-15T12:52:38.891Z,18.00
2019-02-15T12:55:07.576Z,17.90
2019-02-15T12:57:36.474Z,18.30
2019-02-15T13:00:10.983Z,19.20
2019-02-15T13:02:40.834Z,18.90
2019-02-15T13:05:11.774Z,18.60
2019-02-15T13:07:40.034Z,17.90
2019-02-15T13:10:11.657Z,17.80
2019-02-15T13:12:43.089Z,18.30
2019-02-15T13:15:12.972Z,18.00
2019-02-15T13:17:41.252Z,18.80
2019-02-15T13:20:10.599Z,19.20
2019-02-15T13:22:38.869Z,19.80
2019-02-15T13:25:08.259Z,19.40
2019-02-15T13:27:41.993Z,19.00
2019-02-15T13:30:12.882Z,18.10
2019-02-15T13:32:41.590Z,18.30
2019-02-15T13:35:18.805Z,18.50
2019-02-15T13:37:47.032Z,18.50
2019-02-15T13:40:15.292Z,18.50
2019-02-15T13:42:44.462Z,17.80
2019-02-15T13:45:13.291Z,17.90
2019-02-15T13:47:41.582Z,17.90
2019-02-15T13:50:12.705Z,18.30
2019-02-15T13:52:43.775Z,18.50
2019-02-15T13:55:12.027Z,18.40
2019-02-15T13:57:43.669Z,17.70
2019-02-15T14:00:13.226Z,17.50
2019-02-15T14:02:41.449Z,17.40
2019-02-15T14:05:11.646Z,17.30
2019-02-15T14:07:43.534Z,17.30
2019-02-15T14:10:13.882Z,17.20
2019-02-15T14:12:46.144Z,17.20
2019-02-15T14:15:14.697Z,17.20
2019-02-15T14:17:45.449Z,17.20
2019-02-15T14:20:14.613Z,17.30
2019-02-15T14:22:47.534Z,17.30
2019-02-15T14:25:14.374Z,17.30
2019-02-15T14:30:24.641Z,17.30
2019-02-15T14:32:52.891Z,17.30
2019-02-15T14:35:23.858Z,17.40
2019-02-15T14:37:54.043Z,17.20
2019-02-15T14:40:22.357Z,17.30
2019-02-15T14:42:52.223Z,17.30
2019-02-15T14:45:23.571Z,17.30
2019-02-15T14:47:54.889Z,17.20
2019-02-15T14:50:21.790Z,17.30
2019-02-15T14:52:52.028Z,17.30
2019-02-15T14:55:20.264Z,17.30
2019-02-15T14:57:50.606Z,17.30
2019-02-15T15:00:19.171Z,17.30
2019-02-15T15:02:47.471Z,17.30
2019-02-15T15:05:15.992Z,17.30
2019-02-15T15:07:44.421Z,17.30
2019-02-15T15:10:12.758Z,17.30
2019-02-15T15:12:41.013Z,17.30
2019-02-15T15:15:12.666Z,17.30
2019-02-15T15:17:40.895Z,17.30
2019-02-15T15:20:10.970Z,17.30
2019-02-15T15:22:39.333Z,17.30
2019-02-15T15:25:11.582Z,17.30
2019-02-15T15:27:40.058Z,17.20
2019-02-15T15:30:10.952Z,17.30
2019-02-15T15:32:39.206Z,17.20
2019-02-15T15:35:09.661Z,17.20
2019-02-15T15:37:41.280Z,17.20
2019-02-15T15:40:16.542Z,17.10
2019-02-15T15:42:45.732Z,17.10
2019-02-15T15:45:16.315Z,17.10
2019-02-15T15:47:46.076Z,17.10
2019-02-15T15:50:14.339Z,17.00
2019-02-15T15:52:44.653Z,17.00
2019-02-15T15:55:14.048Z,16.90
2019-02-15T15:57:43.951Z,17.00
2019-02-15T16:00:15.964Z,16.90
2019-02-15T16:02:44.604Z,16.90
2019-02-15T16:05:12.905Z,16.80
2019-02-15T16:07:43.505Z,16.80
2019-02-15T16:10:13.030Z,16.60
2019-02-15T16:12:41.301Z,16.60
2019-02-15T16:15:16.469Z,16.40
2019-02-15T16:17:45.171Z,16.50
2019-02-15T16:20:14.137Z,16.40
2019-02-15T16:22:44.388Z,16.30
2019-02-15T16:25:12.647Z,16.30
2019-02-15T16:27:43.532Z,16.30
2019-02-15T16:30:13.912Z,16.20
2019-02-15T16:32:42.169Z,16.20
2019-02-15T16:35:10.590Z,16.10
2019-02-15T16:37:39.162Z,16.00
2019-02-15T16:40:13.058Z,16.00
2019-02-15T16:42:41.488Z,15.90
2019-02-15T16:45:14.597Z,15.80
2019-02-15T16:47:43.219Z,15.70
2019-02-15T16:50:11.731Z,15.60
2019-02-15T16:52:40.982Z,15.60
2019-02-15T16:55:13.020Z,15.60
2019-02-15T16:57:39.724Z,15.50
2019-02-15T17:00:12.798Z,15.40
2019-02-15T17:02:42.773Z,15.30
2019-02-15T17:05:11.562Z,15.20
2019-02-15T17:07:39.998Z,15.20
2019-02-15T17:10:10.861Z,15.10
2019-02-15T17:12:39.092Z,15.10
2019-02-15T17:15:13.242Z,15.10
2019-02-15T17:17:41.527Z,14.90
2019-02-15T17:20:10.198Z,14.90
2019-02-15T17:22:38.882Z,14.80
2019-02-15T17:25:12.816Z,14.70
2019-02-15T17:27:41.472Z,14.70
2019-02-15T17:30:10.981Z,14.50
2019-02-15T17:32:39.263Z,14.40
2019-02-15T17:35:09.732Z,14.40
2019-02-15T17:37:38.973Z,14.30
2019-02-15T17:40:15.049Z,14.20
2019-02-15T17:42:43.331Z,14.20
2019-02-15T17:45:14.339Z,14.10
2019-02-15T17:47:43.765Z,14.00
2019-02-15T17:50:12.368Z,14.00
2019-02-15T17:52:40.958Z,14.00
2019-02-15T17:55:10.040Z,14.00
2019-02-15T17:57:41.502Z,13.90
2019-02-15T18:00:16.866Z,13.80
2019-02-15T18:02:52.725Z,13.80
2019-02-15T18:05:21.714Z,13.70
2019-02-15T18:07:50.770Z,13.60
2019-02-15T18:10:19.094Z,13.60
2019-02-15T18:12:47.326Z,13.50
2019-02-15T18:15:17.138Z,13.50
2019-02-15T18:17:45.567Z,13.40
2019-02-15T18:20:13.867Z,13.40
2019-02-15T18:22:43.577Z,13.40
2019-02-15T18:25:12.497Z,13.30
2019-02-15T18:27:40.784Z,13.20
2019-02-15T18:30:11.911Z,13.20
2019-02-15T18:32:40.228Z,13.20
2019-02-15T18:35:09.722Z,13.10
2019-02-15T18:37:38.233Z,13.00
2019-02-15T18:40:10.510Z,13.00
2019-02-15T18:42:39.177Z,13.00
2019-02-15T18:45:13.088Z,13.00
2019-02-15T18:47:41.641Z,13.00
2019-02-15T18:50:10.261Z,12.90
2019-02-15T18:52:38.552Z,13.00
2019-02-15T18:55:09.430Z,12.90
2019-02-15T18:57:37.672Z,12.80
2019-02-15T19:00:15.670Z,12.80
2019-02-15T19:02:46.146Z,12.80
2019-02-15T19:05:14.463Z,12.70
2019-02-15T19:07:42.975Z,12.70
2019-02-15T19:10:17.528Z,12.60
2019-02-15T19:12:46.114Z,12.60
2019-02-15T19:15:16.328Z,12.50
2019-02-15T19:17:44.579Z,12.60
2019-02-15T19:20:16.762Z,12.50
2019-02-15T19:22:45.176Z,12.40
2019-02-15T19:25:15.224Z,12.40
2019-02-15T19:27:43.657Z,12.40
2019-02-15T19:30:18.069Z,12.40
2019-02-15T19:32:46.731Z,12.40
2019-02-15T19:35:15.004Z,12.30
2019-02-15T19:37:43.337Z,12.30
2019-02-15T19:40:14.566Z,12.20
2019-02-15T19:42:48.062Z,12.10
2019-02-15T19:45:19.230Z,12.10
2019-02-15T19:47:47.483Z,12.00
2019-02-15T19:50:20.636Z,12.00
2019-02-15T19:52:49.517Z,12.10
2019-02-15T19:55:18.092Z,12.10
2019-02-15T19:57:46.447Z,12.10
2019-02-15T20:00:19.405Z,12.00
2019-02-15T20:02:47.690Z,12.00
2019-02-15T20:05:15.964Z,12.00
2019-02-15T20:07:44.770Z,11.90
2019-02-15T20:10:15.321Z,11.80
2019-02-15T20:12:43.974Z,11.80
2019-02-15T20:15:13.950Z,11.70
2019-02-15T20:17:42.301Z,11.70
2019-02-15T20:20:18.463Z,11.60
2019-02-15T20:22:46.810Z,11.60
2019-02-15T20:25:15.160Z,11.60
2019-02-15T20:27:47.214Z,11.50
2019-02-15T20:30:21.482Z,11.50
2019-02-15T20:32:50.091Z,11.50
2019-02-15T20:35:19.625Z,11.40
2019-02-15T20:37:48.146Z,11.40
2019-02-15T20:40:17.403Z,11.40
2019-02-15T20:42:45.654Z,11.30
2019-02-15T20:45:20.352Z,11.20
2019-02-15T20:47:48.642Z,11.30
2019-02-15T20:50:17.881Z,11.20
2019-02-15T20:52:46.531Z,11.30
2019-02-15T20:55:16.630Z,11.30
2019-02-15T20:57:44.890Z,11.20
2019-02-15T21:00:26.907Z,11.10
2019-02-15T21:02:55.177Z,11.20
2019-02-15T21:05:23.552Z,11.10
2019-02-15T21:07:52.123Z,11.10
2019-02-15T21:10:20.394Z,11.00
2019-02-15T21:12:48.734Z,11.00
2019-02-15T21:15:17.585Z,10.90
2019-02-15T21:17:49.383Z,10.90
2019-02-15T21:20:18.483Z,10.90
2019-02-15T21:22:46.778Z,10.80
2019-02-15T21:25:16.961Z,10.80
2019-02-15T21:27:46.480Z,10.80
2019-02-15T21:30:17.110Z,10.80
2019-02-15T21:32:45.399Z,10.70
2019-02-15T21:35:15.505Z,10.70
2019-02-15T21:37:43.727Z,10.60
2019-02-15T21:40:14.876Z,10.60
2019-02-15T21:42:43.873Z,10.60
2019-02-15T21:45:13.202Z,10.60
2019-02-15T21:47:41.516Z,10.50
2019-02-15T21:50:17.224Z,10.40
2019-02-15T21:52:44.145Z,10.40
2019-02-15T21:55:13.801Z,10.30
2019-02-15T21:57:44.022Z,10.30
2019-02-15T22:00:23.454Z,10.30
2019-02-15T22:02:51.891Z,10.30
2019-02-15T22:05:20.277Z,10.30
2019-02-15T22:07:49.138Z,10.40
2019-02-15T22:10:17.552Z,10.30
2019-02-15T22:12:45.802Z,10.20
2019-02-15T22:15:16.017Z,10.20
2019-02-15T22:17:44.256Z,10.10
2019-02-15T22:20:15.923Z,10.10
2019-02-15T22:22:44.364Z,10.00
2019-02-15T22:25:12.636Z,10.10
2019-02-15T22:27:40.890Z,10.10
2019-02-15T22:30:12.623Z,10.00
2019-02-15T22:32:42.594Z,10.00
2019-02-15T22:35:11.058Z,10.00
2019-02-15T22:37:39.694Z,10.00
2019-02-15T22:40:27.643Z,9.90
2019-02-15T22:42:58.014Z,9.90
2019-02-15T22:45:26.248Z,9.90
2019-02-15T22:47:54.676Z,9.80
2019-02-15T22:50:23.096Z,9.80
2019-02-15T22:52:51.353Z,9.70
2019-02-15T22:55:19.577Z,9.80
2019-02-15T22:57:48.133Z,9.70
2019-02-15T23:03:29.737Z,9.70
2019-02-15T23:05:58.103Z,9.70
2019-02-15T23:08:26.391Z,9.60
2019-02-15T23:10:54.882Z,9.60
2019-02-15T23:13:23.110Z,9.60
2019-02-15T23:15:51.360Z,9.60
2019-02-15T23:18:19.830Z,9.60
2019-02-15T23:20:48.562Z,9.60
2019-02-15T23:23:16.855Z,9.60
2019-02-15T23:25:45.206Z,9.70
2019-02-15T23:28:13.470Z,9.60
2019-02-15T23:30:41.724Z,9.60
2019-02-15T23:33:10.226Z,9.60
2019-02-15T23:35:39.285Z,9.60
2019-02-15T23:38:07.589Z,9.60
2019-02-15T23:40:35.934Z,9.60
2019-02-15T23:43:04.261Z,9.50
2019-02-15T23:45:32.480Z,9.40
2019-02-15T23:48:00.815Z,9.40
2019-02-15T23:50:29.051Z,9.40
2019-02-15T23:52:57.332Z,9.30
2019-02-15T23:55:25.775Z,9.30
2019-02-15T23:57:54.012Z,9.30
